createdAt,value
2023-04-09T00:00:25.881Z,100668.74
2023-04-09T00:01:28.539Z,100672.77
2023-04-09T00:02:31.909Z,100671.63
2023-04-09T00:03:37.949Z,100670.61
2023-04-09T00:04:41.137Z,100666.84
2023-04-09T00:05:44.660Z,100670.80
2023-04-09T00:06:48.038Z,100662.39
2023-04-09T00:07:50.624Z,100662.39
2023-04-09T00:08:54.512Z,100664.72
2023-04-09T00:09:59.097Z,100669.41
2023-04-09T00:11:04.530Z,100669.83
2023-04-09T00:12:07.255Z,100668.33
2023-04-09T00:13:09.720Z,100657.80
2023-04-09T00:14:13.221Z,100660.54
2023-04-09T00:15:27.682Z,100665.59
2023-04-09T00:16:23.802Z,100659.77
2023-04-09T00:17:28.063Z,100663.11
2023-04-09T00:18:33.348Z,100662.01
2023-04-09T00:19:36.717Z,100663.36
2023-04-09T00:20:40.313Z,100661.31
2023-04-09T00:21:44.032Z,100666.02
2023-04-09T00:22:46.369Z,100665.77
2023-04-09T00:23:49.883Z,100667.28
2023-04-09T00:24:53.391Z,100670.63
2023-04-09T00:25:57.421Z,100669.69
2023-04-09T00:27:00.190Z,100666.26
2023-04-09T00:28:03.677Z,100660.95
2023-04-09T00:29:07.199Z,100668.05
2023-04-09T00:30:13.537Z,100664.55
2023-04-09T00:31:18.384Z,100659.16
2023-04-09T00:32:24.143Z,100661.04
2023-04-09T00:33:26.752Z,100661.04
2023-04-09T00:34:29.356Z,100665.23
2023-04-09T00:35:33.689Z,100666.70
2023-04-09T00:36:37.164Z,100665.16
2023-04-09T00:37:40.035Z,100668.41
2023-04-09T00:38:43.255Z,100661.23
2023-04-09T00:39:47.583Z,100664.82
2023-04-09T00:40:50.883Z,100660.29
2023-04-09T00:41:58.372Z,100658.66
2023-04-09T00:43:03.029Z,100661.40
2023-04-09T00:44:06.535Z,100659.85
2023-04-09T00:45:09.377Z,100666.02
2023-04-09T00:46:12.817Z,100650.79
2023-04-09T00:47:16.604Z,100656.02
2023-04-09T00:48:18.841Z,100653.08
2023-04-09T00:49:21.326Z,100656.09
2023-04-09T00:50:25.995Z,100656.95
2023-04-09T00:51:29.608Z,100654.38
2023-04-09T00:52:33.604Z,100656.34
2023-04-09T00:53:37.318Z,100660.10
2023-04-09T00:54:41.034Z,100658.22
2023-04-09T00:55:45.058Z,100655.48
2023-04-09T00:56:48.289Z,100658.14
2023-04-09T00:57:51.757Z,100659.24
2023-04-09T00:58:54.936Z,100669.69
2023-04-09T00:59:59.183Z,100668.83
2023-04-09T01:01:05.021Z,100672.50
2023-04-09T01:02:09.153Z,100659.08
2023-04-09T01:03:13.436Z,100667.97
2023-04-09T01:04:19.468Z,100669.59
2023-04-09T01:05:23.389Z,100664.13
2023-04-09T01:06:29.928Z,100666.86
2023-04-09T01:07:36.568Z,100671.31
2023-04-09T01:08:51.264Z,100674.73
2023-04-09T01:09:57.162Z,100662.83
2023-04-09T01:11:08.698Z,100674.19
2023-04-09T01:12:22.865Z,100669.94
2023-04-09T01:13:30.336Z,100680.32
2023-04-09T01:14:45.452Z,100680.32
2023-04-09T01:15:55.248Z,100684.95
2023-04-09T01:16:59.447Z,100680.94
2023-04-09T01:18:03.840Z,100688.89
2023-04-09T01:19:23.673Z,100683.91
2023-04-09T01:20:30.936Z,100686.32
2023-04-09T01:21:38.422Z,100691.19
2023-04-09T01:23:03.333Z,100684.84
2023-04-09T01:24:20.416Z,100688.85
2023-04-09T01:25:33.207Z,100693.92
2023-04-09T01:26:44.386Z,100687.14
2023-04-09T01:27:53.066Z,100689.87
2023-04-09T01:28:58.066Z,100691.66
2023-04-09T01:30:03.930Z,100694.77
2023-04-09T01:31:09.378Z,100698.20
2023-04-09T01:32:12.214Z,100693.30
2023-04-09T01:33:17.534Z,100701.74
2023-04-09T01:34:22.543Z,100689.44
2023-04-09T01:35:28.263Z,100697.03
2023-04-09T01:36:33.075Z,100692.91
2023-04-09T01:37:37.053Z,100698.28
2023-04-09T01:38:42.118Z,100696.48
2023-04-09T01:39:47.176Z,100695.36
2023-04-09T01:40:52.824Z,100694.50
2023-04-09T01:41:59.950Z,100692.71
2023-04-09T01:43:04.085Z,100689.40
2023-04-09T01:44:08.306Z,100696.22
2023-04-09T01:45:12.867Z,100691.78
2023-04-09T01:46:19.132Z,100694.97
2023-04-09T01:47:22.497Z,100684.13
2023-04-09T01:48:25.254Z,100692.94
2023-04-09T01:49:29.287Z,100689.93
2023-04-09T01:50:33.210Z,100691.22
2023-04-09T01:51:36.296Z,100692.16
2023-04-09T01:52:38.966Z,100699.56
2023-04-09T01:53:43.049Z,100701.59
2023-04-09T01:54:46.711Z,100700.66
2023-04-09T01:55:50.428Z,100693.41
2023-04-09T01:56:58.734Z,100695.98
2023-04-09T01:58:02.096Z,100695.13
2023-04-09T01:59:06.673Z,100694.03
2023-04-09T02:00:11.991Z,100696.33
2023-04-09T02:01:24.689Z,100694.37
2023-04-09T02:02:29.840Z,100691.33
2023-04-09T02:03:35.333Z,100697.64
2023-04-09T02:04:44.889Z,100694.30
2023-04-09T02:06:08.254Z,100699.67
2023-04-09T02:07:31.577Z,100698.98
2023-04-09T02:08:36.025Z,100687.04
2023-04-09T02:09:42.378Z,100702.78
2023-04-09T02:10:50.882Z,100691.64
2023-04-09T02:11:55.740Z,100689.69
2023-04-09T02:13:02.614Z,100689.69
2023-04-09T02:14:10.153Z,100697.72
2023-04-09T02:15:14.081Z,100691.64
2023-04-09T02:16:18.305Z,100691.03
2023-04-09T02:17:22.078Z,100696.33
2023-04-09T02:18:29.405Z,100691.22
2023-04-09T02:19:41.986Z,100686.70
2023-04-09T02:20:49.437Z,100694.64
2023-04-09T02:21:54.053Z,100694.73
2023-04-09T02:23:00.691Z,100697.93
2023-04-09T02:24:04.297Z,100692.13
2023-04-09T02:25:07.059Z,100699.91
2023-04-09T02:26:11.699Z,100695.28
2023-04-09T02:27:16.682Z,100695.20
2023-04-09T02:28:20.907Z,100695.20
2023-04-09T02:29:24.002Z,100693.57
2023-04-09T02:30:27.810Z,100699.05
2023-04-09T02:31:31.923Z,100698.36
2023-04-09T02:32:37.852Z,100700.73
2023-04-09T02:33:40.609Z,100698.09
2023-04-09T02:34:42.767Z,100702.72
2023-04-09T02:35:48.287Z,100700.85
2023-04-09T02:36:52.538Z,100694.62
2023-04-09T02:37:55.371Z,100705.37
2023-04-09T02:38:58.878Z,100693.76
2023-04-09T02:40:02.187Z,100694.62
2023-04-09T02:41:07.539Z,100701.59
2023-04-09T02:42:10.960Z,100711.53
2023-04-09T02:43:15.188Z,100701.01
2023-04-09T02:44:18.805Z,100699.38
2023-04-09T02:45:22.000Z,100702.25
2023-04-09T02:46:26.227Z,100701.55
2023-04-09T02:47:32.103Z,100700.62
2023-04-09T02:48:35.854Z,100703.27
2023-04-09T02:49:38.860Z,100693.88
2023-04-09T02:50:42.140Z,100703.61
2023-04-09T02:51:48.358Z,100693.33
2023-04-09T02:52:50.607Z,100700.26
2023-04-09T02:53:56.057Z,100691.69
2023-04-09T02:54:59.403Z,100694.41
2023-04-09T02:56:03.034Z,100696.83
2023-04-09T02:57:06.612Z,100698.03
2023-04-09T02:58:09.906Z,100697.25
2023-04-09T02:59:12.570Z,100695.53
2023-04-09T03:00:15.349Z,100701.91
2023-04-09T03:01:19.102Z,100702.06
2023-04-09T03:02:23.307Z,100695.99
2023-04-09T03:03:27.050Z,100700.20
2023-04-09T03:04:31.260Z,100700.28
2023-04-09T03:05:33.830Z,100701.84
2023-04-09T03:06:37.926Z,100703.33
2023-04-09T03:07:41.042Z,100700.91
2023-04-09T03:08:43.586Z,100704.41
2023-04-09T03:09:47.318Z,100704.56
2023-04-09T03:10:50.819Z,100706.28
2023-04-09T03:11:53.553Z,100695.77
2023-04-09T03:12:56.802Z,100702.77
2023-04-09T03:14:00.183Z,100707.21
2023-04-09T03:15:07.124Z,100707.99
2023-04-09T03:16:10.487Z,100703.55
2023-04-09T03:17:13.950Z,100708.84
2023-04-09T03:18:17.560Z,100705.50
2023-04-09T03:19:20.830Z,100700.91
2023-04-09T03:20:25.695Z,100706.20
2023-04-09T03:21:31.088Z,100698.97
2023-04-09T03:22:38.040Z,100706.64
2023-04-09T03:23:44.567Z,100696.98
2023-04-09T03:24:49.920Z,100698.03
2023-04-09T03:26:03.075Z,100700.83
2023-04-09T03:27:09.612Z,100697.17
2023-04-09T03:28:14.280Z,100703.92
2023-04-09T03:29:23.607Z,100703.06
2023-04-09T03:30:27.215Z,100713.73
2023-04-09T03:31:31.266Z,100713.66
2023-04-09T03:32:34.896Z,100707.27
2023-04-09T03:33:38.133Z,100705.70
2023-04-09T03:34:40.922Z,100713.42
2023-04-09T03:35:48.099Z,100708.05
2023-04-09T03:36:52.053Z,100698.16
2023-04-09T03:37:56.573Z,100712.92
2023-04-09T03:39:01.120Z,100712.54
2023-04-09T03:40:08.017Z,100706.89
2023-04-09T03:41:10.840Z,100713.59
2023-04-09T03:42:16.951Z,100705.02
2023-04-09T03:43:22.239Z,100718.11
2023-04-09T03:44:28.669Z,100707.28
2023-04-09T03:45:35.835Z,100706.19
2023-04-09T03:46:42.287Z,100708.72
2023-04-09T03:47:47.761Z,100705.67
2023-04-09T03:48:53.196Z,100708.00
2023-04-09T03:49:58.036Z,100705.16
2023-04-09T03:51:04.648Z,100704.22
2023-04-09T03:52:13.080Z,100703.12
2023-04-09T03:53:18.433Z,100708.09
2023-04-09T03:54:23.606Z,100705.09
2023-04-09T03:55:27.468Z,100712.55
2023-04-09T03:56:32.386Z,100707.50
2023-04-09T03:57:36.982Z,100712.02
2023-04-09T03:58:41.280Z,100713.66
2023-04-09T03:59:45.717Z,100714.06
2023-04-09T04:00:50.890Z,100715.20
2023-04-09T04:02:01.799Z,100714.27
2023-04-09T04:03:05.661Z,100713.12
2023-04-09T04:04:17.230Z,100718.34
2023-04-09T04:05:26.708Z,100706.45
2023-04-09T04:06:33.358Z,100717.16
2023-04-09T04:07:44.291Z,100719.12
2023-04-09T04:08:49.714Z,100714.13
2023-04-09T04:09:53.816Z,100715.25
2023-04-09T04:10:57.539Z,100719.79
2023-04-09T04:12:02.403Z,100715.99
2023-04-09T04:13:14.526Z,100711.28
2023-04-09T04:14:22.218Z,100716.24
2023-04-09T04:15:30.215Z,100714.83
2023-04-09T04:16:33.667Z,100719.46
2023-04-09T04:17:38.237Z,100718.08
2023-04-09T04:18:43.391Z,100717.61
2023-04-09T04:19:46.372Z,100712.30
2023-04-09T04:20:50.711Z,100714.77
2023-04-09T04:21:54.338Z,100720.52
2023-04-09T04:22:58.353Z,100722.25
2023-04-09T04:24:02.368Z,100728.42
2023-04-09T04:25:08.648Z,100723.97
2023-04-09T04:26:13.131Z,100737.80
2023-04-09T04:27:17.080Z,100732.02
2023-04-09T04:28:21.183Z,100727.18
2023-04-09T04:29:26.029Z,100727.37
2023-04-09T04:30:34.182Z,100729.81
2023-04-09T04:31:39.592Z,100729.03
2023-04-09T04:32:42.776Z,100730.92
2023-04-09T04:33:47.003Z,100729.59
2023-04-09T04:34:51.194Z,100733.09
2023-04-09T04:36:08.022Z,100726.38
2023-04-09T04:37:26.131Z,100733.61
2023-04-09T04:38:32.154Z,100729.34
2023-04-09T04:39:36.148Z,100724.61
2023-04-09T04:40:42.188Z,100731.03
2023-04-09T04:41:45.607Z,100729.84
2023-04-09T04:42:50.210Z,100731.72
2023-04-09T04:43:54.434Z,100722.55
2023-04-09T04:45:00.752Z,100731.58
2023-04-09T04:46:06.890Z,100731.65
2023-04-09T04:47:10.276Z,100726.39
2023-04-09T04:48:13.801Z,100724.61
2023-04-09T04:49:17.716Z,100727.97
2023-04-09T04:50:22.883Z,100721.89
2023-04-09T04:51:34.011Z,100720.77
2023-04-09T04:52:45.556Z,100724.91
2023-04-09T04:53:49.922Z,100718.03
2023-04-09T04:54:56.543Z,100723.79
2023-04-09T04:56:00.144Z,100729.02
2023-04-09T04:57:05.119Z,100727.51
2023-04-09T04:58:13.695Z,100726.70
2023-04-09T04:59:19.026Z,100726.90
2023-04-09T05:00:37.272Z,100731.16
2023-04-09T05:01:40.849Z,100730.52
2023-04-09T05:02:45.604Z,100731.07
2023-04-09T05:04:07.859Z,100729.27
2023-04-09T05:05:13.069Z,100725.75
2023-04-09T05:06:20.163Z,100734.89
2023-04-09T05:07:23.156Z,100734.70
2023-04-09T05:08:28.740Z,100729.21
2023-04-09T05:09:31.310Z,100732.83
2023-04-09T05:10:40.788Z,100733.53
2023-04-09T05:11:43.525Z,100728.43
2023-04-09T05:12:48.712Z,100732.77
2023-04-09T05:13:54.850Z,100725.47
2023-04-09T05:15:01.306Z,100735.07
2023-04-09T05:16:04.021Z,100734.74
2023-04-09T05:17:11.761Z,100741.03
2023-04-09T05:18:16.793Z,100731.08
2023-04-09T05:19:21.430Z,100733.64
2023-04-09T05:20:25.150Z,100729.53
2023-04-09T05:21:31.230Z,100733.05
2023-04-09T05:22:34.044Z,100735.86
2023-04-09T05:23:37.700Z,100746.54
2023-04-09T05:24:41.367Z,100747.78
2023-04-09T05:25:47.780Z,100756.31
2023-04-09T05:26:54.182Z,100755.05
2023-04-09T05:27:58.045Z,100760.39
2023-04-09T05:29:02.385Z,100766.24
2023-04-09T05:30:06.529Z,100767.77
2023-04-09T05:31:11.502Z,100768.38
2023-04-09T05:32:18.240Z,100763.77
2023-04-09T05:33:26.583Z,100775.35
2023-04-09T05:34:30.345Z,100782.40
2023-04-09T05:35:35.265Z,100773.84
2023-04-09T05:36:39.989Z,100772.13
2023-04-09T05:37:43.263Z,100776.28
2023-04-09T05:38:47.201Z,100778.53
2023-04-09T05:39:50.727Z,100782.30
2023-04-09T05:40:58.356Z,100788.83
2023-04-09T05:42:02.310Z,100768.38
2023-04-09T05:43:09.432Z,100777.77
2023-04-09T05:44:14.647Z,100776.95
2023-04-09T05:45:19.534Z,100780.53
2023-04-09T05:46:24.677Z,100774.75
2023-04-09T05:47:28.294Z,100777.15
2023-04-09T05:48:37.565Z,100769.52
2023-04-09T05:49:41.144Z,100783.39
2023-04-09T05:50:55.460Z,100772.47
2023-04-09T05:51:58.092Z,100782.65
2023-04-09T05:53:04.420Z,100778.17
2023-04-09T05:54:10.310Z,100780.13
2023-04-09T05:55:14.665Z,100782.63
2023-04-09T05:56:28.753Z,100785.41
2023-04-09T05:57:33.464Z,100786.77
2023-04-09T05:58:38.788Z,100793.67
2023-04-09T05:59:41.103Z,100801.70
2023-04-09T06:00:46.346Z,100791.80
2023-04-09T06:01:51.373Z,100781.19
2023-04-09T06:02:54.821Z,100785.08
2023-04-09T06:03:59.098Z,100790.92
2023-04-09T06:05:05.536Z,100784.63
2023-04-09T06:06:07.885Z,100789.38
2023-04-09T06:07:10.236Z,100796.37
2023-04-09T06:08:15.934Z,100794.55
2023-04-09T06:09:23.885Z,100790.80
2023-04-09T06:10:27.857Z,100792.87
2023-04-09T06:11:31.884Z,100798.44
2023-04-09T06:12:36.950Z,100804.50
2023-04-09T06:13:41.812Z,100793.31
2023-04-09T06:14:44.929Z,100795.20
2023-04-09T06:15:47.582Z,100788.63
2023-04-09T06:16:52.743Z,100791.78
2023-04-09T06:17:56.544Z,100796.03
2023-04-09T06:18:59.140Z,100792.97
2023-04-09T06:20:04.628Z,100792.97
2023-04-09T06:21:08.657Z,100800.27
2023-04-09T06:22:12.155Z,100796.11
2023-04-09T06:23:15.771Z,100796.84
2023-04-09T06:24:19.583Z,100794.77
2023-04-09T06:25:24.960Z,100790.23
2023-04-09T06:26:28.254Z,100796.06
2023-04-09T06:27:31.456Z,100799.09
2023-04-09T06:28:35.057Z,100798.66
2023-04-09T06:29:43.264Z,100795.13
2023-04-09T06:30:47.751Z,100799.45
2023-04-09T06:31:51.535Z,100794.98
2023-04-09T06:32:54.955Z,100811.98
2023-04-09T06:33:58.963Z,100818.66
2023-04-09T06:35:04.609Z,100818.55
2023-04-09T06:36:07.655Z,100831.02
2023-04-09T06:37:13.225Z,100832.55
2023-04-09T06:38:19.971Z,100842.02
2023-04-09T06:39:24.631Z,100845.67
2023-04-09T06:40:28.289Z,100841.50
2023-04-09T06:41:35.086Z,100841.41
2023-04-09T06:42:50.812Z,100854.16
2023-04-09T06:43:59.856Z,100851.88
2023-04-09T06:45:02.282Z,100855.22
2023-04-09T06:46:06.853Z,100857.70
2023-04-09T06:47:13.387Z,100856.20
2023-04-09T06:48:16.910Z,100848.13
2023-04-09T06:49:22.279Z,100838.15
2023-04-09T06:50:24.945Z,100840.87
2023-04-09T06:51:27.418Z,100835.27
2023-04-09T06:52:30.927Z,100840.03
2023-04-09T06:53:34.452Z,100832.17
2023-04-09T06:54:37.827Z,100833.30
2023-04-09T06:55:42.804Z,100820.14
2023-04-09T06:56:46.230Z,100823.65
2023-04-09T06:57:49.700Z,100818.94
2023-04-09T06:58:52.171Z,100819.98
2023-04-09T06:59:54.825Z,100829.59
2023-04-09T07:00:59.475Z,100831.44
2023-04-09T07:02:03.041Z,100827.67
2023-04-09T07:03:07.523Z,100837.30
2023-04-09T07:04:10.879Z,100839.70
2023-04-09T07:05:14.340Z,100835.34
2023-04-09T07:06:18.588Z,100850.12
2023-04-09T07:07:25.628Z,100853.77
2023-04-09T07:08:28.713Z,100841.27
2023-04-09T07:09:32.335Z,100853.44
2023-04-09T07:10:35.844Z,100861.78
2023-04-09T07:11:39.224Z,100873.12
2023-04-09T07:12:43.391Z,100873.02
2023-04-09T07:13:47.813Z,100878.39
2023-04-09T07:14:51.313Z,100881.20
2023-04-09T07:15:53.569Z,100866.83
2023-04-09T07:16:57.252Z,100863.48
2023-04-09T07:17:59.974Z,100845.42
2023-04-09T07:19:03.787Z,100849.39
2023-04-09T07:20:08.654Z,100833.67
2023-04-09T07:21:12.802Z,100841.05
2023-04-09T07:22:16.057Z,100832.58
2023-04-09T07:23:20.402Z,100843.92
2023-04-09T07:24:25.993Z,100855.36
2023-04-09T07:25:29.392Z,100856.70
2023-04-09T07:26:33.001Z,100849.86
2023-04-09T07:27:37.759Z,100855.73
2023-04-09T07:28:42.937Z,100853.56
2023-04-09T07:29:48.512Z,100852.08
2023-04-09T07:30:51.670Z,100851.12
2023-04-09T07:31:54.999Z,100863.89
2023-04-09T07:32:58.149Z,100852.53
2023-04-09T07:34:00.860Z,100848.52
2023-04-09T07:35:05.742Z,100862.22
2023-04-09T07:36:09.242Z,100860.44
2023-04-09T07:37:13.378Z,100864.56
2023-04-09T07:38:17.604Z,100856.95
2023-04-09T07:39:22.873Z,100850.72
2023-04-09T07:40:26.208Z,100840.59
2023-04-09T07:41:32.202Z,100840.31
2023-04-09T07:42:37.491Z,100837.30
2023-04-09T07:43:40.574Z,100832.86
2023-04-09T07:44:44.596Z,100845.52
2023-04-09T07:45:49.562Z,100829.16
2023-04-09T07:46:51.940Z,100830.63
2023-04-09T07:47:56.541Z,100827.16
2023-04-09T07:49:00.172Z,100832.50
2023-04-09T07:50:06.841Z,100823.29
2023-04-09T07:51:13.222Z,100817.87
2023-04-09T07:52:16.717Z,100824.59
2023-04-09T07:53:19.841Z,100820.52
2023-04-09T07:54:23.130Z,100812.95
2023-04-09T07:55:26.352Z,100820.08
2023-04-09T07:56:30.959Z,100831.21
2023-04-09T07:57:34.792Z,100844.45
2023-04-09T07:58:43.897Z,100842.68
2023-04-09T07:59:49.951Z,100852.19
2023-04-09T08:00:53.360Z,100855.25
2023-04-09T08:01:55.809Z,100867.42
2023-04-09T08:03:00.228Z,100863.08
2023-04-09T08:04:04.273Z,100861.12
2023-04-09T08:05:10.363Z,100862.76
2023-04-09T08:06:14.021Z,100863.80
2023-04-09T08:07:16.798Z,100859.94
2023-04-09T08:08:21.344Z,100865.41
2023-04-09T08:09:24.009Z,100859.64
2023-04-09T08:10:27.430Z,100860.05
2023-04-09T08:11:32.894Z,100854.61
2023-04-09T08:12:39.561Z,100858.44
2023-04-09T08:13:43.256Z,100858.91
2023-04-09T08:14:46.659Z,100867.05
2023-04-09T08:15:50.295Z,100864.34
2023-04-09T08:16:53.664Z,100863.74
2023-04-09T08:17:57.724Z,100863.92
2023-04-09T08:19:00.184Z,100871.97
2023-04-09T08:20:03.992Z,100868.00
2023-04-09T08:21:08.733Z,100862.16
2023-04-09T08:22:13.365Z,100866.55
2023-04-09T08:23:16.484Z,100864.07
2023-04-09T08:24:20.292Z,100867.39
2023-04-09T08:25:23.367Z,100870.87
2023-04-09T08:26:28.229Z,100872.19
2023-04-09T08:27:31.940Z,100868.25
2023-04-09T08:28:36.103Z,100849.57
2023-04-09T08:29:41.575Z,100857.83
2023-04-09T08:30:44.451Z,100863.87
2023-04-09T08:31:48.309Z,100852.05
2023-04-09T08:32:52.224Z,100838.15
2023-04-09T08:33:58.797Z,100836.57
2023-04-09T08:35:02.482Z,100834.06
2023-04-09T08:36:09.673Z,100833.17
2023-04-09T08:37:12.377Z,100832.50
2023-04-09T08:38:17.541Z,100819.78
2023-04-09T08:39:22.841Z,100824.34
2023-04-09T08:40:26.239Z,100825.60
2023-04-09T08:41:30.368Z,100828.31
2023-04-09T08:42:34.957Z,100821.67
2023-04-09T08:43:56.389Z,100821.05
2023-04-09T08:44:48.010Z,100825.72
2023-04-09T08:45:52.019Z,100824.25
2023-04-09T08:46:58.212Z,100821.36
2023-04-09T08:48:04.445Z,100820.05
2023-04-09T08:49:09.321Z,100811.41
2023-04-09T08:50:13.562Z,100813.46
2023-04-09T08:51:17.894Z,100807.28
2023-04-09T08:52:24.523Z,100803.30
2023-04-09T08:53:28.485Z,100806.56
2023-04-09T08:54:31.665Z,100800.92
2023-04-09T08:55:36.217Z,100808.17
2023-04-09T08:56:40.746Z,100803.39
2023-04-09T08:57:44.372Z,100816.56
2023-04-09T08:58:48.259Z,100812.72
2023-04-09T08:59:50.931Z,100809.66
2023-04-09T09:00:55.152Z,100805.52
2023-04-09T09:02:04.079Z,100807.69
2023-04-09T09:03:07.899Z,100819.23
2023-04-09T09:04:13.109Z,100814.62
2023-04-09T09:05:16.293Z,100812.38
2023-04-09T09:06:22.575Z,100807.45
2023-04-09T09:07:26.129Z,100808.59
2023-04-09T09:08:31.189Z,100820.20
2023-04-09T09:09:37.205Z,100810.28
2023-04-09T09:10:45.978Z,100826.52
2023-04-09T09:11:54.782Z,100816.06
2023-04-09T09:12:58.038Z,100811.59
2023-04-09T09:14:05.145Z,100814.86
2023-04-09T09:15:28.584Z,100821.74
2023-04-09T09:16:33.369Z,100810.97
2023-04-09T09:17:37.764Z,100811.00
2023-04-09T09:18:44.101Z,100813.11
2023-04-09T09:19:47.819Z,100819.50
2023-04-09T09:20:52.455Z,100813.42
2023-04-09T09:22:01.655Z,100811.84
2023-04-09T09:23:09.094Z,100815.08
2023-04-09T09:24:18.486Z,100813.36
2023-04-09T09:25:26.806Z,100817.78
2023-04-09T09:26:31.305Z,100818.44
2023-04-09T09:27:41.835Z,100814.00
2023-04-09T09:28:45.124Z,100820.52
2023-04-09T09:29:49.303Z,100807.02
2023-04-09T09:30:53.721Z,100815.44
2023-04-09T09:31:56.871Z,100802.84
2023-04-09T09:33:07.362Z,100801.08
2023-04-09T09:34:11.307Z,100803.89
2023-04-09T09:35:14.670Z,100805.41
2023-04-09T09:36:34.425Z,100803.31
2023-04-09T09:37:37.498Z,100801.00
2023-04-09T09:38:57.732Z,100793.55
2023-04-09T09:40:00.889Z,100792.06
2023-04-09T09:41:06.592Z,100803.77
2023-04-09T09:42:09.391Z,100803.91
2023-04-09T09:43:14.729Z,100799.83
2023-04-09T09:44:33.722Z,100796.91
2023-04-09T09:45:38.487Z,100794.36
2023-04-09T09:46:46.366Z,100797.27
2023-04-09T09:47:51.778Z,100798.81
2023-04-09T09:48:55.400Z,100793.32
2023-04-09T09:49:58.016Z,100795.45
2023-04-09T09:51:02.681Z,100794.92
2023-04-09T09:52:09.738Z,100801.17
2023-04-09T09:53:14.549Z,100787.55
2023-04-09T09:54:19.883Z,100785.05
2023-04-09T09:55:24.786Z,100779.03
2023-04-09T09:56:34.620Z,100796.88
2023-04-09T09:57:40.969Z,100788.89
2023-04-09T09:59:04.562Z,100782.93
2023-04-09T10:00:08.862Z,100773.44
2023-04-09T10:01:17.645Z,100775.37
2023-04-09T10:02:22.378Z,100773.52
2023-04-09T10:03:27.939Z,100775.81
2023-04-09T10:04:33.185Z,100776.66
2023-04-09T10:05:39.391Z,100765.73
2023-04-09T10:06:44.510Z,100764.00
2023-04-09T10:07:50.497Z,100766.69
2023-04-09T10:08:56.938Z,100761.23
2023-04-09T10:10:01.058Z,100759.17
2023-04-09T10:11:04.982Z,100759.97
2023-04-09T10:12:09.425Z,100760.20
2023-04-09T10:13:22.603Z,100763.52
2023-04-09T10:14:29.469Z,100763.08
2023-04-09T10:15:33.885Z,100761.60
2023-04-09T10:16:37.772Z,100756.86
2023-04-09T10:17:41.740Z,100764.38
2023-04-09T10:18:44.628Z,100766.36
2023-04-09T10:19:49.971Z,100762.55
2023-04-09T10:20:56.205Z,100756.28
2023-04-09T10:22:05.829Z,100757.69
2023-04-09T10:23:12.687Z,100753.72
2023-04-09T10:24:15.684Z,100746.14
2023-04-09T10:25:18.760Z,100747.00
2023-04-09T10:26:22.787Z,100745.31
2023-04-09T10:27:27.494Z,100750.02
2023-04-09T10:28:33.893Z,100750.69
2023-04-09T10:29:38.953Z,100749.84
2023-04-09T10:30:43.269Z,100753.64
2023-04-09T10:32:06.000Z,100752.72
2023-04-09T10:33:16.584Z,100743.03
2023-04-09T10:34:24.081Z,100743.20
2023-04-09T10:35:28.667Z,100744.05
2023-04-09T10:36:31.409Z,100743.34
2023-04-09T10:37:39.077Z,100745.20
2023-04-09T10:38:48.640Z,100743.55
2023-04-09T10:39:53.935Z,100740.41
2023-04-09T10:40:57.386Z,100733.56
2023-04-09T10:42:03.181Z,100733.31
2023-04-09T10:43:07.375Z,100736.30
2023-04-09T10:44:23.831Z,100727.88
2023-04-09T10:45:28.607Z,100733.97
2023-04-09T10:46:32.864Z,100727.34
2023-04-09T10:47:37.382Z,100721.87
2023-04-09T10:48:40.986Z,100727.16
2023-04-09T10:49:44.479Z,100729.72
2023-04-09T10:50:49.031Z,100728.95
2023-04-09T10:51:54.309Z,100720.03
2023-04-09T10:52:58.746Z,100721.30
2023-04-09T10:54:01.945Z,100725.33
2023-04-09T10:55:07.655Z,100729.24
2023-04-09T10:56:17.850Z,100724.37
2023-04-09T10:57:22.302Z,100710.73
2023-04-09T10:58:25.878Z,100721.91
2023-04-09T10:59:28.357Z,100715.64
2023-04-09T11:00:30.599Z,100709.44
2023-04-09T11:01:34.219Z,100715.16
2023-04-09T11:02:43.350Z,100709.62
2023-04-09T11:03:48.636Z,100721.35
2023-04-09T11:04:54.274Z,100708.41
2023-04-09T11:06:07.044Z,100715.67
2023-04-09T11:07:12.081Z,100709.45
2023-04-09T11:08:15.399Z,100719.22
2023-04-09T11:09:18.808Z,100712.48
2023-04-09T11:10:22.939Z,100701.47
2023-04-09T11:11:27.421Z,100708.34
2023-04-09T11:12:29.954Z,100702.28
2023-04-09T11:13:33.580Z,100709.22
2023-04-09T11:14:38.569Z,100696.98
2023-04-09T11:15:42.254Z,100691.03
2023-04-09T11:16:47.717Z,100692.50
2023-04-09T11:17:51.602Z,100694.00
2023-04-09T11:18:59.718Z,100694.56
2023-04-09T11:20:04.763Z,100688.11
2023-04-09T11:21:11.229Z,100699.30
2023-04-09T11:22:14.371Z,100702.32
2023-04-09T11:23:18.216Z,100692.59
2023-04-09T11:24:20.722Z,100680.87
2023-04-09T11:25:27.123Z,100682.39
2023-04-09T11:26:37.153Z,100677.96
2023-04-09T11:27:44.266Z,100682.95
2023-04-09T11:28:47.170Z,100680.98
2023-04-09T11:29:56.136Z,100675.40
2023-04-09T11:30:59.839Z,100679.65
2023-04-09T11:32:04.890Z,100683.56
2023-04-09T11:33:10.199Z,100676.23
2023-04-09T11:34:13.377Z,100672.23
2023-04-09T11:35:17.185Z,100668.41
2023-04-09T11:36:25.882Z,100668.94
2023-04-09T11:37:29.440Z,100670.45
2023-04-09T11:38:37.333Z,100674.33
2023-04-09T11:39:41.256Z,100669.68
2023-04-09T11:40:48.109Z,100668.27
2023-04-09T11:41:53.973Z,100660.96
2023-04-09T11:42:57.696Z,100662.25
2023-04-09T11:44:03.737Z,100661.09
2023-04-09T11:45:08.691Z,100659.48
2023-04-09T11:46:12.809Z,100670.53
2023-04-09T11:47:18.419Z,100666.20
2023-04-09T11:48:23.868Z,100655.91
2023-04-09T11:49:27.500Z,100664.17
2023-04-09T11:50:31.448Z,100651.91
2023-04-09T11:51:36.062Z,100662.09
2023-04-09T11:52:43.544Z,100646.56
2023-04-09T11:53:48.879Z,100649.20
2023-04-09T11:54:51.710Z,100661.71
2023-04-09T11:55:55.357Z,100653.50
2023-04-09T11:57:00.185Z,100658.60
2023-04-09T11:58:03.694Z,100640.91
2023-04-09T11:59:08.721Z,100638.36
2023-04-09T12:00:18.291Z,100642.14
2023-04-09T12:01:23.302Z,100651.27
2023-04-09T12:02:25.763Z,100645.39
2023-04-09T12:03:37.479Z,100646.87
2023-04-09T12:04:44.113Z,100642.27
2023-04-09T12:05:51.131Z,100647.09
2023-04-09T12:06:59.292Z,100651.78
2023-04-09T12:08:05.456Z,100658.77
2023-04-09T12:09:08.499Z,100643.95
2023-04-09T12:10:14.522Z,100652.47
2023-04-09T12:11:18.563Z,100660.52
2023-04-09T12:12:23.827Z,100649.63
2023-04-09T12:13:28.405Z,100661.05
2023-04-09T12:14:33.658Z,100648.23
2023-04-09T12:15:37.198Z,100650.95
2023-04-09T12:16:44.293Z,100653.58
2023-04-09T12:17:50.200Z,100647.88
2023-04-09T12:18:56.207Z,100646.46
2023-04-09T12:20:03.992Z,100635.59
2023-04-09T12:21:06.376Z,100644.48
2023-04-09T12:22:11.414Z,100650.19
2023-04-09T12:23:15.064Z,100636.16
2023-04-09T12:24:21.284Z,100636.55
2023-04-09T12:25:25.822Z,100643.95